Aérodrome :
LOGIN :

S'inscrire | Disclaimer

   EN    FR    IT 

 










Légende :    VFR   VFR Marginal   IFR   IFR Intensif   IFR Très Intensif
Visi : 
Plafond : 
>= 8 km
>= 3000ft
5 à 8 km
1000 à 3000 ft
1500m à 5 km
500 à 1000 ft
800 à 1500m
200 à 500 ft
< 800m
< 200 ft
Symboles :   Orages  Brouillard  Fortes neiges  Fortes précipitations  Vent > 20 kt
SIGMETs :   Divers  Orages  Givrage  Turbulence  Onde Orograph.  Cendres Volcan.







- Altitude de l'aérodrome : 2026 ft
- Code IATA : TOJ


LETO - Madrid Torrejon

DERNIER METAR :
  • 250600Z VRB02KT 9999 FEW045 SCT065 14/12 Q1011 NOSIG

METARs EXPIRÉS :
  • 250500Z 15003KT 120V190 9999 FEW045 SCT065 14/12 Q1011 NOSIG
  • 250400Z 00000KT 9999 SCT045 SCT065 14/13 Q1012 NOSIG

TAF TAF LETO
Valide du 25 à 06h jusqu'au 26 à 06h UTC


250500Z 2506/2606 VRB05KT 9999 SCT045 TX22/2515Z TN06/2606Z
TEMPO 2506/2510 RA
BECMG 2508/2510 23012KT
TEMPO 2511/2518 23020G30KT
PROB40
TEMPO 2510/2520 SHRA SCT040TCU
PROB30
TEMPO 2515/2519 VRB15G25KT 3000 TSRA SCT040CB
BECMG 2521/2523 VRB05KT
Pas de NOTAMs connus pour ce terrain.



MET'MAP, la Météo Aéronautique d'un coup d'oeil ! - Copyright ORBIFLY Décembre 2007 - Disclaimer

ORBIFLY MET'MAP TEAM :

Programmation & Développement : Alexandra Zaïnal
Conception & Développement : Baudouin d'Aumeries
Co-Programmation & Développement : Marc-Olivier Méhu
Soutien technique & logistique : Manuel Goepfert

Contact : metmap@orbifly.com




SOURCES & CREDITS :

   NOAA